sensor_id;sensor_type;location;lat;lon;timestamp;temperature;humidity
40676;DHT22;26359;48.750;9.314;2023-05-27T00:00:00;16.50;99.90
40676;DHT22;26359;48.750;9.314;2023-05-27T00:02:25;16.50;99.90
40676;DHT22;26359;48.750;9.314;2023-05-27T00:04:51;16.50;99.90
40676;DHT22;26359;48.750;9.314;2023-05-27T00:07:17;16.50;99.90
40676;DHT22;26359;48.750;9.314;2023-05-27T00:09:42;16.40;99.90
40676;DHT22;26359;48.750;9.314;2023-05-27T00:12:08;16.40;99.90
40676;DHT22;26359;48.750;9.314;2023-05-27T00:14:33;16.40;99.90
40676;DHT22;26359;48.750;9.314;2023-05-27T00:16:59;16.40;99.90
40676;DHT22;26359;48.750;9.314;2023-05-27T00:19:27;16.40;99.90
40676;DHT22;26359;48.750;9.314;2023-05-27T00:21:55;16.30;99.90
40676;DHT22;26359;48.750;9.314;2023-05-27T00:24:21;16.30;99.90
40676;DHT22;26359;48.750;9.314;2023-05-27T00:26:46;16.30;99.90
40676;DHT22;26359;48.750;9.314;2023-05-27T00:29:12;16.20;99.90
40676;DHT22;26359;48.750;9.314;2023-05-27T00:31:37;16.20;99.90
40676;DHT22;26359;48.750;9.314;2023-05-27T00:34:03;16.10;99.90
40676;DHT22;26359;48.750;9.314;2023-05-27T00:36:29;16.10;99.90
40676;DHT22;26359;48.750;9.314;2023-05-27T00:38:57;16.10;99.90
40676;DHT22;26359;48.750;9.314;2023-05-27T00:41:22;16.10;99.90
40676;DHT22;26359;48.750;9.314;2023-05-27T00:43:48;16.10;99.90
40676;DHT22;26359;48.750;9.314;2023-05-27T00:46:14;16.10;99.90
40676;DHT22;26359;48.750;9.314;2023-05-27T00:48:40;16.10;99.90
40676;DHT22;26359;48.750;9.314;2023-05-27T00:51:06;16.10;99.90
40676;DHT22;26359;48.750;9.314;2023-05-27T00:53:39;16.10;99.90
40676;DHT22;26359;48.750;9.314;2023-05-27T00:56:11;16.10;99.90
40676;DHT22;26359;48.750;9.314;2023-05-27T00:58:38;16.10;99.90
40676;DHT22;26359;48.750;9.314;2023-05-27T01:01:04;16.10;99.90
40676;DHT22;26359;48.750;9.314;2023-05-27T01:03:30;16.00;99.90
40676;DHT22;26359;48.750;9.314;2023-05-27T01:09:08;15.90;99.90
40676;DHT22;26359;48.750;9.314;2023-05-27T01:11:40;15.90;99.90
40676;DHT22;26359;48.750;9.314;2023-05-27T01:14:10;15.80;99.90
40676;DHT22;26359;48.750;9.314;2023-05-27T01:16:38;15.80;99.90
40676;DHT22;26359;48.750;9.314;2023-05-27T01:19:07;15.80;99.90
40676;DHT22;26359;48.750;9.314;2023-05-27T01:21:37;15.70;99.90
40676;DHT22;26359;48.750;9.314;2023-05-27T01:24:04;15.70;99.90
40676;DHT22;26359;48.750;9.314;2023-05-27T01:26:31;15.70;99.90
40676;DHT22;26359;48.750;9.314;2023-05-27T01:28:56;15.60;99.90
40676;DHT22;26359;48.750;9.314;2023-05-27T01:31:31;15.60;99.90
40676;DHT22;26359;48.750;9.314;2023-05-27T01:34:03;15.60;99.90
40676;DHT22;26359;48.750;9.314;2023-05-27T01:36:36;15.60;99.90
40676;DHT22;26359;48.750;9.314;2023-05-27T01:39:03;15.60;99.90
40676;DHT22;26359;48.750;9.314;2023-05-27T01:41:30;15.60;99.90
40676;DHT22;26359;48.750;9.314;2023-05-27T01:43:56;15.50;99.90
40676;DHT22;26359;48.750;9.314;2023-05-27T01:46:23;15.50;99.90
40676;DHT22;26359;48.750;9.314;2023-05-27T01:48:48;15.40;99.90
40676;DHT22;26359;48.750;9.314;2023-05-27T01:51:14;15.40;99.90
40676;DHT22;26359;48.750;9.314;2023-05-27T01:53:39;15.30;99.90
40676;DHT22;26359;48.750;9.314;2023-05-27T01:56:05;15.40;99.90
40676;DHT22;26359;48.750;9.314;2023-05-27T01:58:30;15.40;99.90
40676;DHT22;26359;48.750;9.314;2023-05-27T02:00:56;15.40;99.90
40676;DHT22;26359;48.750;9.314;2023-05-27T02:03:21;15.40;99.90
40676;DHT22;26359;48.750;9.314;2023-05-27T02:05:47;15.40;99.90
40676;DHT22;26359;48.750;9.314;2023-05-27T02:08:13;15.40;99.90
40676;DHT22;26359;48.750;9.314;2023-05-27T02:10:38;15.30;99.90
40676;DHT22;26359;48.750;9.314;2023-05-27T02:13:04;15.30;99.90
40676;DHT22;26359;48.750;9.314;2023-05-27T02:15:30;15.20;99.90
40676;DHT22;26359;48.750;9.314;2023-05-27T02:17:56;15.20;99.90
40676;DHT22;26359;48.750;9.314;2023-05-27T02:20:22;15.20;99.90
40676;DHT22;26359;48.750;9.314;2023-05-27T02:22:50;15.10;99.90
40676;DHT22;26359;48.750;9.314;2023-05-27T02:25:15;15.20;99.90
40676;DHT22;26359;48.750;9.314;2023-05-27T02:27:41;15.10;99.90
40676;DHT22;26359;48.750;9.314;2023-05-27T02:30:14;15.10;99.90
40676;DHT22;26359;48.750;9.314;2023-05-27T02:32:40;15.10;99.90
40676;DHT22;26359;48.750;9.314;2023-05-27T02:35:06;15.10;99.90
40676;DHT22;26359;48.750;9.314;2023-05-27T02:37:32;15.10;99.90
40676;DHT22;26359;48.750;9.314;2023-05-27T02:39:58;15.00;99.90
40676;DHT22;26359;48.750;9.314;2023-05-27T02:42:23;15.00;99.90
40676;DHT22;26359;48.750;9.314;2023-05-27T02:44:49;15.00;99.90
40676;DHT22;26359;48.750;9.314;2023-05-27T02:47:14;14.90;99.90
40676;DHT22;26359;48.750;9.314;2023-05-27T02:49:40;14.90;99.90
40676;DHT22;26359;48.750;9.314;2023-05-27T02:52:05;15.10;99.90
40676;DHT22;26359;48.750;9.314;2023-05-27T02:54:31;15.10;99.90
40676;DHT22;26359;48.750;9.314;2023-05-27T02:56:56;15.10;99.90
40676;DHT22;26359;48.750;9.314;2023-05-27T02:59:22;15.00;99.90
40676;DHT22;26359;48.750;9.314;2023-05-27T03:01:47;15.00;99.90
40676;DHT22;26359;48.750;9.314;2023-05-27T03:04:13;15.00;99.90
40676;DHT22;26359;48.750;9.314;2023-05-27T03:06:39;15.00;99.90
40676;DHT22;26359;48.750;9.314;2023-05-27T03:09:05;14.90;99.90
40676;DHT22;26359;48.750;9.314;2023-05-27T03:11:32;14.90;99.90
40676;DHT22;26359;48.750;9.314;2023-05-27T03:13:58;14.80;99.90
40676;DHT22;26359;48.750;9.314;2023-05-27T03:16:23;14.80;99.90
40676;DHT22;26359;48.750;9.314;2023-05-27T03:18:50;14.70;99.90
40676;DHT22;26359;48.750;9.314;2023-05-27T03:21:15;14.80;99.90
40676;DHT22;26359;48.750;9.314;2023-05-27T03:23:41;14.70;99.90
40676;DHT22;26359;48.750;9.314;2023-05-27T03:26:06;14.70;99.90
40676;DHT22;26359;48.750;9.314;2023-05-27T03:28:32;14.60;99.90
40676;DHT22;26359;48.750;9.314;2023-05-27T03:30:57;14.50;99.90
40676;DHT22;26359;48.750;9.314;2023-05-27T03:33:23;14.40;99.90
40676;DHT22;26359;48.750;9.314;2023-05-27T03:35:49;14.40;99.90
40676;DHT22;26359;48.750;9.314;2023-05-27T03:38:15;14.40;99.90
40676;DHT22;26359;48.750;9.314;2023-05-27T03:40:40;14.40;99.90
40676;DHT22;26359;48.750;9.314;2023-05-27T03:43:06;14.50;99.90
40676;DHT22;26359;48.750;9.314;2023-05-27T03:45:31;14.50;99.90
40676;DHT22;26359;48.750;9.314;2023-05-27T03:47:57;14.50;99.90
40676;DHT22;26359;48.750;9.314;2023-05-27T03:50:22;14.50;99.90
40676;DHT22;26359;48.750;9.314;2023-05-27T03:52:48;14.40;99.90
40676;DHT22;26359;48.750;9.314;2023-05-27T03:55:15;14.40;99.90
40676;DHT22;26359;48.750;9.314;2023-05-27T03:57:42;14.30;99.90
40676;DHT22;26359;48.750;9.314;2023-05-27T04:00:08;14.40;99.90
40676;DHT22;26359;48.750;9.314;2023-05-27T04:02:36;14.30;99.90
40676;DHT22;26359;48.750;9.314;2023-05-27T04:05:02;14.40;99.90
40676;DHT22;26359;48.750;9.314;2023-05-27T04:07:28;14.30;99.90
40676;DHT22;26359;48.750;9.314;2023-05-27T04:09:54;14.30;99.90
40676;DHT22;26359;48.750;9.314;2023-05-27T04:12:19;14.40;99.90
40676;DHT22;26359;48.750;9.314;2023-05-27T04:14:45;14.30;99.90
40676;DHT22;26359;48.750;9.314;2023-05-27T04:17:11;14.30;99.90
40676;DHT22;26359;48.750;9.314;2023-05-27T04:19:38;14.30;99.90
40676;DHT22;26359;48.750;9.314;2023-05-27T04:22:04;14.30;99.90
40676;DHT22;26359;48.750;9.314;2023-05-27T04:24:30;14.30;99.90
40676;DHT22;26359;48.750;9.314;2023-05-27T04:26:55;14.20;99.90
40676;DHT22;26359;48.750;9.314;2023-05-27T04:29:21;14.20;99.90
40676;DHT22;26359;48.750;9.314;2023-05-27T04:31:48;14.20;99.90
40676;DHT22;26359;48.750;9.314;2023-05-27T04:34:13;14.20;99.90
40676;DHT22;26359;48.750;9.314;2023-05-27T04:36:39;14.20;99.90
40676;DHT22;26359;48.750;9.314;2023-05-27T04:39:04;14.20;99.90
40676;DHT22;26359;48.750;9.314;2023-05-27T04:41:30;14.20;99.90
40676;DHT22;26359;48.750;9.314;2023-05-27T04:43:58;14.40;99.90
40676;DHT22;26359;48.750;9.314;2023-05-27T04:46:26;14.40;99.90
40676;DHT22;26359;48.750;9.314;2023-05-27T04:48:52;14.30;99.90
40676;DHT22;26359;48.750;9.314;2023-05-27T04:51:18;14.30;99.90
40676;DHT22;26359;48.750;9.314;2023-05-27T04:53:44;14.30;99.90
40676;DHT22;26359;48.750;9.314;2023-05-27T04:56:11;14.30;99.90
40676;DHT22;26359;48.750;9.314;2023-05-27T04:58:39;14.30;99.90
40676;DHT22;26359;48.750;9.314;2023-05-27T05:01:05;14.30;99.90
40676;DHT22;26359;48.750;9.314;2023-05-27T05:03:31;14.30;99.90
40676;DHT22;26359;48.750;9.314;2023-05-27T05:06:04;14.30;99.90
40676;DHT22;26359;48.750;9.314;2023-05-27T05:08:30;14.30;99.90
40676;DHT22;26359;48.750;9.314;2023-05-27T05:10:56;14.30;99.90
40676;DHT22;26359;48.750;9.314;2023-05-27T05:13:22;14.30;99.90
40676;DHT22;26359;48.750;9.314;2023-05-27T05:15:47;14.30;99.90
40676;DHT22;26359;48.750;9.314;2023-05-27T05:18:13;14.40;99.90
40676;DHT22;26359;48.750;9.314;2023-05-27T05:20:39;14.40;99.90
40676;DHT22;26359;48.750;9.314;2023-05-27T05:23:06;14.40;99.90
40676;DHT22;26359;48.750;9.314;2023-05-27T05:25:32;14.30;99.90
40676;DHT22;26359;48.750;9.314;2023-05-27T05:28:03;14.30;99.90
40676;DHT22;26359;48.750;9.314;2023-05-27T05:30:29;14.40;99.90
40676;DHT22;26359;48.750;9.314;2023-05-27T05:32:55;14.40;99.90
40676;DHT22;26359;48.750;9.314;2023-05-27T05:35:20;14.40;99.90
40676;DHT22;26359;48.750;9.314;2023-05-27T05:37:46;14.50;99.90
40676;DHT22;26359;48.750;9.314;2023-05-27T05:40:12;14.50;99.90
40676;DHT22;26359;48.750;9.314;2023-05-27T05:42:38;14.40;99.90
40676;DHT22;26359;48.750;9.314;2023-05-27T05:45:04;14.50;99.90
40676;DHT22;26359;48.750;9.314;2023-05-27T05:47:30;14.50;99.90
40676;DHT22;26359;48.750;9.314;2023-05-27T05:49:56;14.60;99.90
40676;DHT22;26359;48.750;9.314;2023-05-27T05:52:21;14.60;99.90
40676;DHT22;26359;48.750;9.314;2023-05-27T05:54:47;14.60;99.90
40676;DHT22;26359;48.750;9.314;2023-05-27T05:57:12;14.70;99.90
40676;DHT22;26359;48.750;9.314;2023-05-27T05:59:38;14.70;99.90
40676;DHT22;26359;48.750;9.314;2023-05-27T06:02:03;14.70;99.90
40676;DHT22;26359;48.750;9.314;2023-05-27T06:04:29;14.70;99.90
40676;DHT22;26359;48.750;9.314;2023-05-27T06:06:54;14.70;99.90
40676;DHT22;26359;48.750;9.314;2023-05-27T06:09:21;14.80;99.90
40676;DHT22;26359;48.750;9.314;2023-05-27T06:11:46;14.80;99.90
40676;DHT22;26359;48.750;9.314;2023-05-27T06:14:12;14.80;99.90
40676;DHT22;26359;48.750;9.314;2023-05-27T06:16:37;14.90;99.90
40676;DHT22;26359;48.750;9.314;2023-05-27T06:19:17;15.00;99.90
40676;DHT22;26359;48.750;9.314;2023-05-27T06:21:52;15.00;99.90
40676;DHT22;26359;48.750;9.314;2023-05-27T06:24:18;15.10;99.90
40676;DHT22;26359;48.750;9.314;2023-05-27T06:26:44;15.10;99.90
40676;DHT22;26359;48.750;9.314;2023-05-27T06:29:10;15.10;99.90
40676;DHT22;26359;48.750;9.314;2023-05-27T06:31:35;15.10;99.90
40676;DHT22;26359;48.750;9.314;2023-05-27T06:34:01;15.20;99.90
40676;DHT22;26359;48.750;9.314;2023-05-27T06:36:28;15.20;99.90
40676;DHT22;26359;48.750;9.314;2023-05-27T06:38:56;15.30;99.90
40676;DHT22;26359;48.750;9.314;2023-05-27T06:41:25;15.20;99.90
40676;DHT22;26359;48.750;9.314;2023-05-27T06:43:50;15.20;99.90
40676;DHT22;26359;48.750;9.314;2023-05-27T06:46:16;15.30;99.90
40676;DHT22;26359;48.750;9.314;2023-05-27T06:48:42;15.40;99.90
40676;DHT22;26359;48.750;9.314;2023-05-27T06:51:08;15.50;99.90
40676;DHT22;26359;48.750;9.314;2023-05-27T06:53:33;15.60;99.90
40676;DHT22;26359;48.750;9.314;2023-05-27T06:55:59;15.70;99.90
40676;DHT22;26359;48.750;9.314;2023-05-27T06:58:25;15.70;99.90
40676;DHT22;26359;48.750;9.314;2023-05-27T07:00:50;15.70;99.90
40676;DHT22;26359;48.750;9.314;2023-05-27T07:03:16;15.70;99.90
40676;DHT22;26359;48.750;9.314;2023-05-27T07:05:41;15.90;99.90
40676;DHT22;26359;48.750;9.314;2023-05-27T07:08:07;15.90;99.90
40676;DHT22;26359;48.750;9.314;2023-05-27T07:10:32;16.10;99.90
40676;DHT22;26359;48.750;9.314;2023-05-27T07:12:58;16.20;99.90
40676;DHT22;26359;48.750;9.314;2023-05-27T07:15:25;16.30;99.90
40676;DHT22;26359;48.750;9.314;2023-05-27T07:17:51;16.40;99.90
40676;DHT22;26359;48.750;9.314;2023-05-27T07:20:16;16.40;99.90
40676;DHT22;26359;48.750;9.314;2023-05-27T07:22:42;16.50;99.90
40676;DHT22;26359;48.750;9.314;2023-05-27T07:25:07;16.50;99.90
40676;DHT22;26359;48.750;9.314;2023-05-27T07:27:33;16.50;99.90
40676;DHT22;26359;48.750;9.314;2023-05-27T07:29:59;16.50;99.90
40676;DHT22;26359;48.750;9.314;2023-05-27T07:32:24;16.50;99.90
40676;DHT22;26359;48.750;9.314;2023-05-27T07:34:50;16.50;99.90
40676;DHT22;26359;48.750;9.314;2023-05-27T07:37:16;16.60;99.90
40676;DHT22;26359;48.750;9.314;2023-05-27T07:39:41;16.70;99.90
40676;DHT22;26359;48.750;9.314;2023-05-27T07:42:07;16.80;99.90
40676;DHT22;26359;48.750;9.314;2023-05-27T07:44:32;16.90;99.90
40676;DHT22;26359;48.750;9.314;2023-05-27T07:46:58;16.90;99.90
40676;DHT22;26359;48.750;9.314;2023-05-27T07:49:24;17.00;99.90
40676;DHT22;26359;48.750;9.314;2023-05-27T07:51:50;17.00;99.90
40676;DHT22;26359;48.750;9.314;2023-05-27T07:54:16;17.20;99.90
40676;DHT22;26359;48.750;9.314;2023-05-27T07:56:41;17.20;99.90
40676;DHT22;26359;48.750;9.314;2023-05-27T07:59:07;17.30;99.90
40676;DHT22;26359;48.750;9.314;2023-05-27T08:01:32;17.50;99.90
40676;DHT22;26359;48.750;9.314;2023-05-27T08:03:58;17.60;99.90
40676;DHT22;26359;48.750;9.314;2023-05-27T08:06:25;17.50;99.90
40676;DHT22;26359;48.750;9.314;2023-05-27T08:08:50;17.60;99.90
40676;DHT22;26359;48.750;9.314;2023-05-27T08:11:16;17.70;99.90
40676;DHT22;26359;48.750;9.314;2023-05-27T08:13:41;17.70;99.90
40676;DHT22;26359;48.750;9.314;2023-05-27T08:16:07;17.80;99.90
40676;DHT22;26359;48.750;9.314;2023-05-27T08:18:35;17.90;99.90
40676;DHT22;26359;48.750;9.314;2023-05-27T08:21:00;17.90;99.90
40676;DHT22;26359;48.750;9.314;2023-05-27T08:23:26;18.00;99.90
40676;DHT22;26359;48.750;9.314;2023-05-27T08:25:52;18.10;99.90
40676;DHT22;26359;48.750;9.314;2023-05-27T08:28:17;18.20;99.90
40676;DHT22;26359;48.750;9.314;2023-05-27T08:30:43;18.20;99.90
40676;DHT22;26359;48.750;9.314;2023-05-27T08:33:08;18.30;99.90
40676;DHT22;26359;48.750;9.314;2023-05-27T08:35:34;18.30;99.90
40676;DHT22;26359;48.750;9.314;2023-05-27T08:40:27;18.60;99.90
40676;DHT22;26359;48.750;9.314;2023-05-27T08:42:53;18.50;99.90
40676;DHT22;26359;48.750;9.314;2023-05-27T08:45:19;18.60;99.90
40676;DHT22;26359;48.750;9.314;2023-05-27T08:47:44;18.70;99.90
40676;DHT22;26359;48.750;9.314;2023-05-27T08:50:11;18.90;99.90
40676;DHT22;26359;48.750;9.314;2023-05-27T08:52:46;19.00;99.90
40676;DHT22;26359;48.750;9.314;2023-05-27T08:55:15;19.00;99.90
40676;DHT22;26359;48.750;9.314;2023-05-27T08:57:45;19.10;99.90
40676;DHT22;26359;48.750;9.314;2023-05-27T09:00:11;19.10;99.90
40676;DHT22;26359;48.750;9.314;2023-05-27T09:02:39;19.10;99.90
40676;DHT22;26359;48.750;9.314;2023-05-27T09:05:06;19.20;99.90
40676;DHT22;26359;48.750;9.314;2023-05-27T09:07:33;19.30;99.90
40676;DHT22;26359;48.750;9.314;2023-05-27T09:09:59;19.40;99.90
40676;DHT22;26359;48.750;9.314;2023-05-27T09:12:25;19.50;99.90
40676;DHT22;26359;48.750;9.314;2023-05-27T09:14:52;19.50;99.90
40676;DHT22;26359;48.750;9.314;2023-05-27T09:17:18;19.60;99.90
40676;DHT22;26359;48.750;9.314;2023-05-27T09:19:46;19.60;99.90
40676;DHT22;26359;48.750;9.314;2023-05-27T09:22:26;19.70;99.90
40676;DHT22;26359;48.750;9.314;2023-05-27T09:24:55;19.70;99.90
40676;DHT22;26359;48.750;9.314;2023-05-27T09:27:29;19.80;99.90
40676;DHT22;26359;48.750;9.314;2023-05-27T09:29:55;20.00;99.90
40676;DHT22;26359;48.750;9.314;2023-05-27T09:32:28;20.00;99.90
40676;DHT22;26359;48.750;9.314;2023-05-27T09:34:56;20.00;99.90
40676;DHT22;26359;48.750;9.314;2023-05-27T09:37:29;20.10;99.90
40676;DHT22;26359;48.750;9.314;2023-05-27T09:39:59;20.20;99.90
40676;DHT22;26359;48.750;9.314;2023-05-27T09:42:24;20.10;99.90
40676;DHT22;26359;48.750;9.314;2023-05-27T09:44:50;20.20;99.90
40676;DHT22;26359;48.750;9.314;2023-05-27T09:47:20;20.30;99.90
40676;DHT22;26359;48.750;9.314;2023-05-27T09:49:48;20.30;99.90
40676;DHT22;26359;48.750;9.314;2023-05-27T09:52:17;20.50;99.90
40676;DHT22;26359;48.750;9.314;2023-05-27T09:54:44;20.50;99.90
40676;DHT22;26359;48.750;9.314;2023-05-27T09:57:10;20.60;99.90
40676;DHT22;26359;48.750;9.314;2023-05-27T09:59:37;20.70;99.90
40676;DHT22;26359;48.750;9.314;2023-05-27T10:02:04;20.70;99.90
40676;DHT22;26359;48.750;9.314;2023-05-27T10:04:31;20.70;99.90
40676;DHT22;26359;48.750;9.314;2023-05-27T10:06:59;20.70;99.90
40676;DHT22;26359;48.750;9.314;2023-05-27T10:09:24;20.80;99.90
40676;DHT22;26359;48.750;9.314;2023-05-27T10:11:50;20.90;99.90
40676;DHT22;26359;48.750;9.314;2023-05-27T10:14:16;21.00;99.90
40676;DHT22;26359;48.750;9.314;2023-05-27T10:16:56;21.10;99.90
40676;DHT22;26359;48.750;9.314;2023-05-27T10:19:21;21.20;99.90
40676;DHT22;26359;48.750;9.314;2023-05-27T10:21:47;21.30;99.90
40676;DHT22;26359;48.750;9.314;2023-05-27T10:24:13;21.40;99.90
40676;DHT22;26359;48.750;9.314;2023-05-27T10:26:45;21.50;99.90
40676;DHT22;26359;48.750;9.314;2023-05-27T10:29:13;21.60;99.90
40676;DHT22;26359;48.750;9.314;2023-05-27T10:31:48;21.70;99.90
40676;DHT22;26359;48.750;9.314;2023-05-27T10:34:14;21.70;99.90
40676;DHT22;26359;48.750;9.314;2023-05-27T10:36:40;21.90;99.90
40676;DHT22;26359;48.750;9.314;2023-05-27T10:39:11;22.00;99.90
40676;DHT22;26359;48.750;9.314;2023-05-27T10:41:41;22.20;99.90
40676;DHT22;26359;48.750;9.314;2023-05-27T10:44:07;22.40;99.90
40676;DHT22;26359;48.750;9.314;2023-05-27T10:46:40;22.50;99.90
40676;DHT22;26359;48.750;9.314;2023-05-27T10:49:22;22.60;99.90
40676;DHT22;26359;48.750;9.314;2023-05-27T10:51:48;22.70;99.90
40676;DHT22;26359;48.750;9.314;2023-05-27T10:54:15;22.90;99.90
40676;DHT22;26359;48.750;9.314;2023-05-27T10:56:49;23.00;99.90
40676;DHT22;26359;48.750;9.314;2023-05-27T10:59:22;23.20;99.90
40676;DHT22;26359;48.750;9.314;2023-05-27T11:01:52;23.30;99.90
40676;DHT22;26359;48.750;9.314;2023-05-27T11:04:20;23.50;99.90
40676;DHT22;26359;48.750;9.314;2023-05-27T11:07:00;23.50;99.90
40676;DHT22;26359;48.750;9.314;2023-05-27T11:09:26;23.70;99.90
40676;DHT22;26359;48.750;9.314;2023-05-27T11:11:52;23.70;99.90
40676;DHT22;26359;48.750;9.314;2023-05-27T11:14:17;23.90;99.90
40676;DHT22;26359;48.750;9.314;2023-05-27T11:16:47;24.00;99.90
40676;DHT22;26359;48.750;9.314;2023-05-27T11:19:14;24.00;99.90
40676;DHT22;26359;48.750;9.314;2023-05-27T11:21:47;24.20;99.90
40676;DHT22;26359;48.750;9.314;2023-05-27T11:24:17;24.40;99.60
40676;DHT22;26359;48.750;9.314;2023-05-27T11:26:47;24.40;98.30
40676;DHT22;26359;48.750;9.314;2023-05-27T11:29:14;24.40;99.00
40676;DHT22;26359;48.750;9.314;2023-05-27T11:31:40;24.50;98.80
40676;DHT22;26359;48.750;9.314;2023-05-27T11:34:13;24.60;98.30
40676;DHT22;26359;48.750;9.314;2023-05-27T11:36:44;24.80;98.10
40676;DHT22;26359;48.750;9.314;2023-05-27T11:39:11;24.80;98.60
40676;DHT22;26359;48.750;9.314;2023-05-27T11:41:50;24.90;98.60
40676;DHT22;26359;48.750;9.314;2023-05-27T11:44:18;25.10;98.30
40676;DHT22;26359;48.750;9.314;2023-05-27T11:46:44;25.10;98.30
40676;DHT22;26359;48.750;9.314;2023-05-27T11:49:12;25.40;97.50
40676;DHT22;26359;48.750;9.314;2023-05-27T11:54:04;25.40;96.80
40676;DHT22;26359;48.750;9.314;2023-05-27T11:56:30;25.40;97.10
40676;DHT22;26359;48.750;9.314;2023-05-27T11:58:57;25.40;96.80
40676;DHT22;26359;48.750;9.314;2023-05-27T12:01:22;25.40;96.80
40676;DHT22;26359;48.750;9.314;2023-05-27T12:03:48;25.50;96.90
40676;DHT22;26359;48.750;9.314;2023-05-27T12:06:14;25.60;98.10
40676;DHT22;26359;48.750;9.314;2023-05-27T12:08:41;25.60;95.70
40676;DHT22;26359;48.750;9.314;2023-05-27T12:11:07;25.90;96.50
40676;DHT22;26359;48.750;9.314;2023-05-27T12:13:32;25.90;96.30
40676;DHT22;26359;48.750;9.314;2023-05-27T12:15:58;26.00;96.10
40676;DHT22;26359;48.750;9.314;2023-05-27T12:18:24;26.00;96.90
40676;DHT22;26359;48.750;9.314;2023-05-27T12:20:50;26.10;95.90
40676;DHT22;26359;48.750;9.314;2023-05-27T12:23:16;26.10;96.50
40676;DHT22;26359;48.750;9.314;2023-05-27T12:25:42;26.10;94.20
40676;DHT22;26359;48.750;9.314;2023-05-27T12:28:08;26.10;95.40
40676;DHT22;26359;48.750;9.314;2023-05-27T12:30:35;26.10;95.40
40676;DHT22;26359;48.750;9.314;2023-05-27T12:33:01;26.10;95.10
40676;DHT22;26359;48.750;9.314;2023-05-27T12:35:27;26.10;94.50
40676;DHT22;26359;48.750;9.314;2023-05-27T12:37:52;26.20;95.00
40676;DHT22;26359;48.750;9.314;2023-05-27T12:40:18;26.10;94.30
40676;DHT22;26359;48.750;9.314;2023-05-27T12:42:43;26.10;93.70
40676;DHT22;26359;48.750;9.314;2023-05-27T12:45:09;26.10;94.30
40676;DHT22;26359;48.750;9.314;2023-05-27T12:47:35;26.10;94.30
40676;DHT22;26359;48.750;9.314;2023-05-27T12:50:01;26.10;93.10
40676;DHT22;26359;48.750;9.314;2023-05-27T12:52:27;26.00;93.40
40676;DHT22;26359;48.750;9.314;2023-05-27T12:54:53;25.90;92.80
40676;DHT22;26359;48.750;9.314;2023-05-27T12:57:19;25.70;92.60
40676;DHT22;26359;48.750;9.314;2023-05-27T12:59:45;25.80;94.10
40676;DHT22;26359;48.750;9.314;2023-05-27T13:02:11;25.90;92.10
40676;DHT22;26359;48.750;9.314;2023-05-27T13:04:36;25.90;93.10
40676;DHT22;26359;48.750;9.314;2023-05-27T13:07:02;25.90;93.20
40676;DHT22;26359;48.750;9.314;2023-05-27T13:09:27;26.00;92.40
40676;DHT22;26359;48.750;9.314;2023-05-27T13:11:53;26.00;93.20
40676;DHT22;26359;48.750;9.314;2023-05-27T13:14:19;26.10;92.90
40676;DHT22;26359;48.750;9.314;2023-05-27T13:16:44;25.80;92.60
40676;DHT22;26359;48.750;9.314;2023-05-27T13:19:10;25.50;92.70
40676;DHT22;26359;48.750;9.314;2023-05-27T13:21:35;25.40;92.70
40676;DHT22;26359;48.750;9.314;2023-05-27T13:24:01;25.60;92.00
40676;DHT22;26359;48.750;9.314;2023-05-27T13:26:27;25.60;92.20
40676;DHT22;26359;48.750;9.314;2023-05-27T13:28:53;25.50;91.20
40676;DHT22;26359;48.750;9.314;2023-05-27T13:31:19;25.50;92.60
40676;DHT22;26359;48.750;9.314;2023-05-27T13:33:45;25.60;91.40
40676;DHT22;26359;48.750;9.314;2023-05-27T13:36:10;25.60;92.00
40676;DHT22;26359;48.750;9.314;2023-05-27T13:38:36;25.70;90.70
40676;DHT22;26359;48.750;9.314;2023-05-27T13:41:02;25.60;92.10
40676;DHT22;26359;48.750;9.314;2023-05-27T13:43:27;25.70;91.30
40676;DHT22;26359;48.750;9.314;2023-05-27T13:45:53;25.80;91.20
40676;DHT22;26359;48.750;9.314;2023-05-27T13:48:18;25.80;90.40
40676;DHT22;26359;48.750;9.314;2023-05-27T13:50:45;25.70;90.40
40676;DHT22;26359;48.750;9.314;2023-05-27T13:53:10;25.60;90.60
40676;DHT22;26359;48.750;9.314;2023-05-27T13:55:36;25.60;90.90
40676;DHT22;26359;48.750;9.314;2023-05-27T13:58:01;25.70;89.20
40676;DHT22;26359;48.750;9.314;2023-05-27T14:00:27;25.70;89.20
40676;DHT22;26359;48.750;9.314;2023-05-27T14:02:54;25.70;90.10
40676;DHT22;26359;48.750;9.314;2023-05-27T14:05:20;25.70;89.20
40676;DHT22;26359;48.750;9.314;2023-05-27T14:07:46;25.80;89.90
40676;DHT22;26359;48.750;9.314;2023-05-27T14:10:12;25.80;88.10
40676;DHT22;26359;48.750;9.314;2023-05-27T14:12:38;25.70;90.20
40676;DHT22;26359;48.750;9.314;2023-05-27T14:15:03;25.70;89.70
40676;DHT22;26359;48.750;9.314;2023-05-27T14:17:29;25.60;88.80
40676;DHT22;26359;48.750;9.314;2023-05-27T14:19:56;25.40;87.80
40676;DHT22;26359;48.750;9.314;2023-05-27T14:22:22;25.30;86.00
40676;DHT22;26359;48.750;9.314;2023-05-27T14:24:47;25.40;87.20
40676;DHT22;26359;48.750;9.314;2023-05-27T14:27:13;25.50;85.60
40676;DHT22;26359;48.750;9.314;2023-05-27T14:29:39;25.60;86.00
40676;DHT22;26359;48.750;9.314;2023-05-27T14:32:06;25.70;86.20
40676;DHT22;26359;48.750;9.314;2023-05-27T14:34:31;25.70;87.10
40676;DHT22;26359;48.750;9.314;2023-05-27T14:36:57;25.80;84.30
40676;DHT22;26359;48.750;9.314;2023-05-27T14:39:22;25.80;84.20
40676;DHT22;26359;48.750;9.314;2023-05-27T14:41:48;25.70;83.90
40676;DHT22;26359;48.750;9.314;2023-05-27T14:44:13;25.60;83.20
40676;DHT22;26359;48.750;9.314;2023-05-27T14:56:23;25.60;99.90
40676;DHT22;26359;48.750;9.314;2023-05-27T14:58:49;25.50;86.80
40676;DHT22;26359;48.750;9.314;2023-05-27T15:01:15;25.50;86.30
40676;DHT22;26359;48.750;9.314;2023-05-27T15:03:41;25.50;85.20
40676;DHT22;26359;48.750;9.314;2023-05-27T15:06:07;25.60;88.90
40676;DHT22;26359;48.750;9.314;2023-05-27T15:08:34;25.50;84.80
40676;DHT22;26359;48.750;9.314;2023-05-27T15:11:01;25.50;84.10
40676;DHT22;26359;48.750;9.314;2023-05-27T15:13:26;25.50;86.20
40676;DHT22;26359;48.750;9.314;2023-05-27T15:15:52;25.40;83.90
40676;DHT22;26359;48.750;9.314;2023-05-27T15:18:17;25.10;85.00
40676;DHT22;26359;48.750;9.314;2023-05-27T15:20:43;25.20;85.90
40676;DHT22;26359;48.750;9.314;2023-05-27T15:23:08;25.30;86.00
40676;DHT22;26359;48.750;9.314;2023-05-27T15:25:35;25.40;85.60
40676;DHT22;26359;48.750;9.314;2023-05-27T15:28:01;25.50;84.90
40676;DHT22;26359;48.750;9.314;2023-05-27T15:30:26;25.40;87.00
40676;DHT22;26359;48.750;9.314;2023-05-27T15:32:52;25.50;87.50
40676;DHT22;26359;48.750;9.314;2023-05-27T15:35:18;25.50;84.80
40676;DHT22;26359;48.750;9.314;2023-05-27T15:37:43;25.60;87.20
40676;DHT22;26359;48.750;9.314;2023-05-27T15:40:09;25.50;87.70
40676;DHT22;26359;48.750;9.314;2023-05-27T15:42:34;25.40;82.80